createdAt,value
2022-07-26T00:05:06.343Z,99377.28
2022-07-26T00:14:42.069Z,99385.00
2022-07-26T00:24:14.522Z,99394.19
2022-07-26T00:33:49.119Z,99410.13
2022-07-26T00:43:24.007Z,99418.44
2022-07-26T00:52:58.583Z,99429.03
2022-07-26T01:02:32.950Z,99433.08
2022-07-26T01:12:07.184Z,99431.85
2022-07-26T01:21:40.990Z,99433.27
2022-07-26T01:31:15.270Z,99428.42
2022-07-26T01:40:51.371Z,99435.09
2022-07-26T01:50:24.249Z,99436.42
2022-07-26T01:59:59.119Z,99438.11
2022-07-26T02:09:34.104Z,99430.98
2022-07-26T02:19:09.643Z,99436.63
2022-07-26T02:28:41.795Z,99429.97
2022-07-26T02:38:16.302Z,99429.33
2022-07-26T02:47:53.395Z,99437.64
2022-07-26T02:57:24.067Z,99444.86
2022-07-26T03:06:57.775Z,99442.16
2022-07-26T03:16:32.868Z,99448.47
2022-07-26T03:26:05.419Z,99462.32
2022-07-26T03:35:39.126Z,99465.08
2022-07-26T03:45:15.116Z,99459.76
2022-07-26T03:54:48.573Z,99461.67
2022-07-26T04:04:23.447Z,99469.92
2022-07-26T04:13:55.465Z,99471.44
2022-07-26T04:23:29.511Z,99469.23
2022-07-26T04:33:03.327Z,99468.66
2022-07-26T04:42:37.604Z,99475.63
2022-07-26T04:52:13.354Z,99485.97
2022-07-26T05:01:47.781Z,99490.98
2022-07-26T05:11:22.647Z,99496.67
2022-07-26T05:20:55.735Z,99500.24
2022-07-26T05:30:32.039Z,99495.72
2022-07-26T05:40:04.946Z,99500.63
2022-07-26T05:49:41.115Z,99505.88
2022-07-26T05:59:13.637Z,99513.97
2022-07-26T06:08:48.060Z,99510.16
2022-07-26T06:18:22.698Z,99517.60
2022-07-26T06:19:26.809Z,99519.91
2022-07-26T06:20:30.149Z,99516.27
2022-07-26T06:30:02.202Z,99516.53
2022-07-26T06:31:04.722Z,99517.34
2022-07-26T06:32:07.253Z,99517.38
2022-07-26T06:33:11.236Z,99522.73
2022-07-26T06:34:15.158Z,99524.66
2022-07-26T06:35:19.101Z,99527.20
2022-07-26T06:36:21.415Z,99526.77
2022-07-26T06:37:23.920Z,99530.73
2022-07-26T06:38:26.395Z,99531.16
2022-07-26T06:39:28.860Z,99524.38
2022-07-26T06:49:02.027Z,99528.66
2022-07-26T06:50:04.480Z,99531.75
2022-07-26T06:51:08.599Z,99528.44
2022-07-26T06:52:10.924Z,99527.17
2022-07-26T06:53:13.398Z,99527.95
2022-07-26T06:54:15.829Z,99528.72
2022-07-26T06:55:19.936Z,99533.55
2022-07-26T07:04:51.170Z,99518.80
2022-07-26T07:05:53.609Z,99525.75
2022-07-26T07:06:56.095Z,99525.17
2022-07-26T07:08:00.187Z,99520.48
2022-07-26T07:09:02.458Z,99522.59
2022-07-26T07:10:06.550Z,99531.44
2022-07-26T07:11:10.489Z,99526.80
2022-07-26T07:12:12.864Z,99527.02
2022-07-26T07:13:16.919Z,99528.06
2022-07-26T07:14:19.223Z,99524.44
2022-07-26T07:15:21.656Z,99531.81
2022-07-26T07:16:25.737Z,99530.58
2022-07-26T07:17:28.067Z,99530.97
2022-07-26T07:27:02.477Z,99533.02
2022-07-26T07:28:06.449Z,99532.56
2022-07-26T07:29:10.469Z,99537.70
2022-07-26T07:30:12.813Z,99530.81
2022-07-26T07:31:15.435Z,99527.60
2022-07-26T07:32:18.570Z,99525.27
2022-07-26T07:33:22.155Z,99524.41
2022-07-26T07:34:22.693Z,99531.70
2022-07-26T07:35:25.135Z,99523.14
2022-07-26T07:36:27.627Z,99520.72
2022-07-26T07:37:38.404Z,99525.52
2022-07-26T07:38:34.167Z,99524.31
2022-07-26T07:39:38.620Z,99523.77
2022-07-26T07:40:38.996Z,99522.76
2022-07-26T07:41:41.491Z,99529.83
2022-07-26T07:42:43.947Z,99527.22
2022-07-26T07:43:46.421Z,99518.91
2022-07-26T07:44:50.497Z,99524.75
2022-07-26T07:45:54.405Z,99527.94
2022-07-26T07:46:56.753Z,99521.57
2022-07-26T07:48:00.831Z,99522.64
2022-07-26T07:49:03.226Z,99517.32
2022-07-26T07:50:05.638Z,99516.73
2022-07-26T07:59:39.456Z,99525.81
2022-07-26T08:00:40.760Z,99526.92
2022-07-26T08:01:45.098Z,99532.68
2022-07-26T08:02:47.135Z,99528.83
2022-07-26T08:03:51.357Z,99538.09
2022-07-26T08:04:55.165Z,99534.06
2022-07-26T08:05:57.529Z,99535.50
2022-07-26T08:07:01.598Z,99535.73
2022-07-26T08:08:03.991Z,99536.33
2022-07-26T08:09:06.715Z,99539.59
2022-07-26T08:10:10.561Z,99539.52
2022-07-26T08:11:14.442Z,99539.48
2022-07-26T08:12:16.790Z,99537.14
2022-07-26T08:13:21.314Z,99545.19
2022-07-26T08:14:23.363Z,99539.52
2022-07-26T08:15:25.651Z,99533.62
2022-07-26T08:16:28.282Z,99541.00
2022-07-26T08:17:30.633Z,99540.54
2022-07-26T08:18:33.148Z,99544.14
2022-07-26T08:19:41.598Z,99537.23
2022-07-26T08:20:38.078Z,99536.45
2022-07-26T08:21:42.112Z,99543.36
2022-07-26T08:22:46.051Z,99540.53
2022-07-26T08:23:48.384Z,99537.80
2022-07-26T08:24:50.879Z,99536.14
2022-07-26T08:25:58.777Z,99537.43
2022-07-26T08:26:55.822Z,99544.81
2022-07-26T08:28:03.396Z,99539.55
2022-07-26T08:29:00.752Z,99537.29
2022-07-26T08:30:04.842Z,99539.15
2022-07-26T08:31:07.226Z,99540.80
2022-07-26T08:32:09.588Z,99534.66
2022-07-26T08:33:13.690Z,99530.09
2022-07-26T08:34:17.657Z,99533.44
2022-07-26T08:35:21.570Z,99534.59
2022-07-26T08:36:23.893Z,99536.39
2022-07-26T08:37:26.359Z,99543.30
2022-07-26T08:38:28.899Z,99529.41
2022-07-26T08:39:31.390Z,99533.23
2022-07-26T08:40:33.861Z,99534.45
2022-07-26T08:41:37.949Z,99534.71
2022-07-26T08:42:40.242Z,99537.95
2022-07-26T08:43:52.514Z,99543.16
2022-07-26T08:44:48.237Z,99544.19
2022-07-26T08:45:52.213Z,99545.41
2022-07-26T08:46:54.607Z,99544.55
2022-07-26T08:48:16.473Z,99551.14
2022-07-26T08:48:59.512Z,99547.84
2022-07-26T08:50:03.530Z,99552.69
2022-07-26T08:51:07.505Z,99540.65
2022-07-26T08:52:09.882Z,99543.52
2022-07-26T08:53:12.344Z,99542.87
2022-07-26T08:54:14.824Z,99543.48
2022-07-26T08:55:17.342Z,99545.78
2022-07-26T08:56:21.362Z,99550.73
2022-07-26T08:57:23.677Z,99553.73
2022-07-26T08:58:26.162Z,99545.42
2022-07-26T08:59:28.863Z,99552.63
2022-07-26T09:00:32.937Z,99556.03
2022-07-26T09:01:36.877Z,99553.97
2022-07-26T09:02:39.258Z,99555.26
2022-07-26T09:03:41.885Z,99559.03
2022-07-26T09:04:45.884Z,99559.41
2022-07-26T09:05:48.142Z,99550.38
2022-07-26T09:06:52.236Z,99554.95
2022-07-26T09:07:56.164Z,99543.30
2022-07-26T09:09:00.141Z,99545.23
2022-07-26T09:10:02.499Z,99554.18
2022-07-26T09:11:05.010Z,99545.03
2022-07-26T09:12:09.051Z,99562.09
2022-07-26T09:13:13.075Z,99561.50
2022-07-26T09:14:15.453Z,99557.03
2022-07-26T09:15:17.905Z,99559.53
2022-07-26T09:16:20.421Z,99556.60
2022-07-26T09:17:24.465Z,99553.95
2022-07-26T09:18:26.770Z,99560.73
2022-07-26T09:19:29.269Z,99555.61
2022-07-26T09:20:33.337Z,99557.85
2022-07-26T09:21:35.680Z,99555.02
2022-07-26T09:22:38.171Z,99560.77
2022-07-26T09:23:42.220Z,99560.34
2022-07-26T09:24:46.139Z,99553.31
2022-07-26T09:25:51.082Z,99560.00
2022-07-26T09:26:53.430Z,99556.50
2022-07-26T09:27:55.922Z,99560.00
2022-07-26T09:28:58.380Z,99555.48
2022-07-26T09:30:02.407Z,99557.44
2022-07-26T09:31:06.383Z,99562.56
2022-07-26T09:32:08.712Z,99557.95
2022-07-26T09:33:12.793Z,99566.94
2022-07-26T09:34:15.154Z,99566.42
2022-07-26T09:35:45.707Z,99570.47
2022-07-26T09:36:21.558Z,99562.16
2022-07-26T09:37:25.630Z,99562.25
2022-07-26T09:38:27.975Z,99556.50
2022-07-26T09:39:33.766Z,99561.04
2022-07-26T09:40:34.523Z,99557.88
2022-07-26T09:41:36.899Z,99562.41
2022-07-26T09:42:39.365Z,99560.39
2022-07-26T09:43:43.488Z,99570.77
2022-07-26T09:44:47.931Z,99568.44
2022-07-26T09:45:48.339Z,99563.98
2022-07-26T09:46:50.937Z,99561.13
2022-07-26T09:56:23.705Z,99575.44
2022-07-26T09:57:26.258Z,99584.61
2022-07-26T09:58:30.333Z,99571.84
2022-07-26T09:59:34.388Z,99574.34
2022-07-26T10:00:38.338Z,99574.50
2022-07-26T10:01:40.715Z,99573.68
2022-07-26T10:02:43.102Z,99574.63
2022-07-26T10:03:45.537Z,99571.63
2022-07-26T10:04:48.087Z,99567.31
2022-07-26T10:05:52.157Z,99563.79
2022-07-26T10:06:54.510Z,99572.22
2022-07-26T10:07:57.007Z,99572.80
2022-07-26T10:08:59.467Z,99574.09
2022-07-26T10:10:01.970Z,99569.30
2022-07-26T10:11:04.444Z,99575.02
2022-07-26T10:12:07.006Z,99574.84
2022-07-26T10:13:09.497Z,99569.95
2022-07-26T10:14:13.688Z,99572.97
2022-07-26T10:15:15.961Z,99573.02
2022-07-26T10:16:20.127Z,99572.17
2022-07-26T10:17:20.915Z,99572.85
2022-07-26T10:18:23.418Z,99572.91
2022-07-26T10:19:25.936Z,99565.58
2022-07-26T10:20:28.446Z,99568.88
2022-07-26T10:21:30.919Z,99577.29
2022-07-26T10:22:34.997Z,99573.93
2022-07-26T10:23:37.315Z,99576.61
2022-07-26T10:24:40.021Z,99575.28
2022-07-26T10:25:42.435Z,99578.70
2022-07-26T10:26:44.884Z,99581.55
2022-07-26T10:27:47.408Z,99578.55
2022-07-26T10:28:49.912Z,99576.88
2022-07-26T10:29:52.416Z,99578.09
2022-07-26T10:30:54.937Z,99582.22
2022-07-26T10:31:57.407Z,99580.17
2022-07-26T10:32:59.875Z,99581.38
2022-07-26T10:34:02.396Z,99581.55
2022-07-26T10:35:04.839Z,99584.44
2022-07-26T10:36:07.390Z,99588.98
2022-07-26T10:37:10.356Z,99581.89
2022-07-26T10:38:12.373Z,99587.02
2022-07-26T10:39:14.796Z,99580.34
2022-07-26T10:40:17.299Z,99580.85
2022-07-26T10:41:19.931Z,99578.27
2022-07-26T10:42:22.286Z,99581.38
2022-07-26T10:43:41.687Z,99585.58
2022-07-26T10:44:27.499Z,99580.02
2022-07-26T10:45:29.969Z,99587.46
2022-07-26T10:46:34.207Z,99582.91
2022-07-26T10:47:36.437Z,99584.58
2022-07-26T10:48:40.598Z,99583.42
2022-07-26T10:49:44.509Z,99593.09
2022-07-26T10:50:48.477Z,99585.11
2022-07-26T10:51:50.807Z,99588.78
2022-07-26T10:52:53.306Z,99589.08
2022-07-26T10:53:55.775Z,99588.13
2022-07-26T10:54:58.238Z,99588.98
2022-07-26T10:56:00.705Z,99583.45
2022-07-26T10:57:03.249Z,99593.39
2022-07-26T10:58:07.354Z,99582.47
2022-07-26T10:59:09.688Z,99581.34
2022-07-26T11:00:13.815Z,99592.56
2022-07-26T11:01:16.207Z,99593.88
2022-07-26T11:02:18.733Z,99589.14
2022-07-26T11:03:21.281Z,99583.23
2022-07-26T11:04:25.223Z,99592.49
2022-07-26T11:05:29.169Z,99583.02
2022-07-26T11:06:33.136Z,99576.38
2022-07-26T11:07:35.471Z,99588.07
2022-07-26T11:08:37.967Z,99588.02
2022-07-26T11:09:40.427Z,99578.09
2022-07-26T11:10:42.918Z,99576.41
2022-07-26T11:11:47.562Z,99581.34
2022-07-26T11:12:49.312Z,99580.68
2022-07-26T11:13:53.373Z,99583.56
2022-07-26T11:14:55.717Z,99575.25
2022-07-26T11:15:58.279Z,99570.48
2022-07-26T11:17:02.291Z,99578.41
2022-07-26T11:18:06.260Z,99576.18
2022-07-26T11:19:08.640Z,99566.95
2022-07-26T11:20:11.142Z,99567.30
2022-07-26T11:21:13.665Z,99568.43
2022-07-26T11:22:16.133Z,99584.09
2022-07-26T11:23:18.553Z,99577.32
2022-07-26T11:24:21.041Z,99582.02
2022-07-26T11:25:25.184Z,99573.67
2022-07-26T11:26:29.066Z,99579.52
2022-07-26T11:27:31.381Z,99583.47
2022-07-26T11:28:33.862Z,99571.80
2022-07-26T11:29:38.367Z,99567.36
2022-07-26T11:30:38.774Z,99573.94
2022-07-26T11:31:50.022Z,99567.00
2022-07-26T11:32:46.899Z,99572.45
2022-07-26T11:33:49.324Z,99571.72
2022-07-26T11:34:53.404Z,99564.59
2022-07-26T11:35:55.744Z,99566.80
2022-07-26T11:36:59.799Z,99564.10
2022-07-26T11:38:11.173Z,99563.03
2022-07-26T11:39:06.244Z,99567.85
2022-07-26T11:40:08.610Z,99562.58
2022-07-26T11:41:11.131Z,99561.34
2022-07-26T11:42:13.645Z,99559.98
2022-07-26T11:43:16.154Z,99558.42
2022-07-26T11:44:18.597Z,99560.19
2022-07-26T11:45:21.062Z,99559.94
2022-07-26T11:46:25.255Z,99556.27
2022-07-26T11:47:27.567Z,99560.67
2022-07-26T11:48:31.699Z,99566.05
2022-07-26T11:49:52.680Z,99559.32
2022-07-26T11:50:38.120Z,99560.53
2022-07-26T11:51:42.061Z,99554.89
2022-07-26T11:52:46.048Z,99561.47
2022-07-26T11:53:48.434Z,99560.90
2022-07-26T11:54:50.914Z,99558.91
2022-07-26T11:55:55.014Z,99551.63
2022-07-26T11:56:58.968Z,99567.16
2022-07-26T11:58:01.445Z,99559.13
2022-07-26T11:59:03.873Z,99557.16
2022-07-26T12:00:06.485Z,99562.77
2022-07-26T12:01:08.824Z,99556.55
2022-07-26T12:02:11.299Z,99560.42
2022-07-26T12:03:13.813Z,99561.91
2022-07-26T12:04:16.825Z,99555.02
2022-07-26T12:05:19.483Z,99558.70
2022-07-26T12:06:21.299Z,99557.13
2022-07-26T12:07:23.855Z,99559.77
2022-07-26T12:08:26.374Z,99557.72
2022-07-26T12:09:28.933Z,99556.03
2022-07-26T12:10:31.400Z,99561.63
2022-07-26T12:11:33.913Z,99566.16
2022-07-26T12:12:38.060Z,99564.13
2022-07-26T12:13:55.538Z,99560.88
2022-07-26T12:14:45.959Z,99571.36
2022-07-26T12:15:50.165Z,99568.92
2022-07-26T12:16:53.923Z,99558.18
2022-07-26T12:17:56.284Z,99558.06
2022-07-26T12:19:00.374Z,99553.02
2022-07-26T12:20:04.549Z,99560.66
2022-07-26T12:21:07.929Z,99554.16
2022-07-26T12:22:11.949Z,99555.91
2022-07-26T12:23:11.841Z,99558.84
2022-07-26T12:24:14.395Z,99553.60
2022-07-26T12:25:16.842Z,99553.46
2022-07-26T12:26:19.320Z,99552.33
2022-07-26T12:27:21.869Z,99553.50
2022-07-26T12:28:24.399Z,99552.38
2022-07-26T12:29:26.926Z,99557.61
2022-07-26T12:30:31.146Z,99558.53
2022-07-26T12:31:33.491Z,99559.59
2022-07-26T12:32:37.460Z,99543.55
2022-07-26T12:33:41.505Z,99555.84
2022-07-26T12:34:45.857Z,99553.34
2022-07-26T12:35:47.767Z,99557.23
2022-07-26T12:36:50.246Z,99550.69
2022-07-26T12:37:52.753Z,99539.55
2022-07-26T12:38:55.281Z,99548.12
2022-07-26T12:39:57.815Z,99549.05
2022-07-26T12:41:01.904Z,99549.61
2022-07-26T12:42:05.893Z,99544.56
2022-07-26T12:43:08.260Z,99550.86
2022-07-26T12:44:11.041Z,99555.75
2022-07-26T12:45:13.248Z,99543.56
2022-07-26T12:46:15.859Z,99553.19
2022-07-26T12:47:19.905Z,99545.97
2022-07-26T12:48:24.121Z,99552.52
2022-07-26T12:49:28.145Z,99554.30
2022-07-26T12:50:32.050Z,99554.34
2022-07-26T12:51:34.414Z,99549.95
2022-07-26T12:52:38.439Z,99563.41
2022-07-26T12:53:40.731Z,99543.27
2022-07-26T12:54:44.796Z,99558.11
2022-07-26T12:55:48.796Z,99542.83
2022-07-26T12:56:52.671Z,99538.99
2022-07-26T12:57:57.018Z,99540.56
2022-07-26T12:59:00.590Z,99526.95
2022-07-26T13:00:02.972Z,99547.05
2022-07-26T13:01:05.419Z,99552.20
2022-07-26T13:02:09.478Z,99531.62
2022-07-26T13:03:11.838Z,99545.34
2022-07-26T13:04:14.876Z,99539.71
2022-07-26T13:05:16.922Z,99543.80
2022-07-26T13:06:20.870Z,99540.87
2022-07-26T13:07:23.278Z,99533.14
2022-07-26T13:08:25.807Z,99538.17
2022-07-26T13:09:29.941Z,99540.63
2022-07-26T13:10:34.379Z,99524.86
2022-07-26T13:11:34.811Z,99534.38
2022-07-26T13:12:37.311Z,99533.56
2022-07-26T13:13:41.433Z,99531.45
2022-07-26T13:14:43.793Z,99536.59
2022-07-26T13:15:46.350Z,99531.79
2022-07-26T13:16:48.962Z,99532.45
2022-07-26T13:17:51.358Z,99529.73
2022-07-26T13:18:55.528Z,99535.61
2022-07-26T13:19:57.887Z,99531.11
2022-07-26T13:21:01.958Z,99537.77
2022-07-26T13:22:04.306Z,99532.20
2022-07-26T13:23:06.841Z,99537.76
2022-07-26T13:24:09.578Z,99536.76
2022-07-26T13:25:11.809Z,99531.33
2022-07-26T13:26:14.240Z,99531.63
2022-07-26T13:27:16.869Z,99528.49
2022-07-26T13:28:19.290Z,99531.41
2022-07-26T13:29:21.800Z,99530.20
2022-07-26T13:30:24.412Z,99528.48
2022-07-26T13:31:26.887Z,99528.17
2022-07-26T13:32:29.321Z,99530.89
2022-07-26T13:33:31.800Z,99532.05
2022-07-26T13:34:35.147Z,99544.51
2022-07-26T13:35:36.759Z,99528.81
2022-07-26T13:36:40.868Z,99531.08
2022-07-26T13:37:43.189Z,99533.08
2022-07-26T13:38:45.683Z,99528.75
2022-07-26T13:39:48.151Z,99534.97
2022-07-26T13:40:52.246Z,99519.98
2022-07-26T13:41:54.538Z,99527.36
2022-07-26T13:42:56.993Z,99519.04
2022-07-26T13:43:59.454Z,99529.17
2022-07-26T13:45:01.970Z,99533.06
2022-07-26T13:46:04.510Z,99523.59
2022-07-26T13:47:06.937Z,99520.63
2022-07-26T13:48:09.435Z,99523.30
2022-07-26T13:49:11.998Z,99523.41
2022-07-26T13:50:14.410Z,99521.00
2022-07-26T13:51:16.968Z,99511.02
2022-07-26T13:52:19.467Z,99515.97
2022-07-26T13:53:21.924Z,99515.39
2022-07-26T13:54:26.041Z,99512.14
2022-07-26T13:55:28.399Z,99518.56
2022-07-26T13:56:30.845Z,99520.23
2022-07-26T13:57:39.244Z,99513.31
2022-07-26T13:58:35.816Z,99512.20
2022-07-26T13:59:39.861Z,99518.16
2022-07-26T14:00:42.213Z,99511.52
2022-07-26T14:01:45.325Z,99512.16
2022-07-26T14:02:48.842Z,99508.03
2022-07-26T14:03:53.180Z,99510.50
2022-07-26T14:04:55.098Z,99511.85
2022-07-26T14:05:59.206Z,99519.39
2022-07-26T14:07:03.206Z,99516.08
2022-07-26T14:08:05.579Z,99518.92
2022-07-26T14:09:10.860Z,99536.70
2022-07-26T14:10:11.989Z,99511.47
2022-07-26T14:11:16.056Z,99510.01
2022-07-26T14:12:20.009Z,99509.58
2022-07-26T14:13:23.980Z,99512.55
2022-07-26T14:14:26.364Z,99506.33
2022-07-26T14:15:30.380Z,99505.75
2022-07-26T14:16:34.437Z,99504.07
2022-07-26T14:17:36.770Z,99502.30
2022-07-26T14:18:39.309Z,99502.16
2022-07-26T14:19:41.831Z,99506.81
2022-07-26T14:20:46.008Z,99502.66
2022-07-26T14:21:59.796Z,99506.27
2022-07-26T14:22:50.993Z,99512.34
2022-07-26T14:23:53.425Z,99515.23
2022-07-26T14:24:55.952Z,99514.88
2022-07-26T14:25:58.388Z,99510.81
2022-07-26T14:27:01.905Z,99509.91
2022-07-26T14:28:04.950Z,99513.91
2022-07-26T14:29:08.298Z,99503.82
2022-07-26T14:30:10.735Z,99512.29
2022-07-26T14:31:13.307Z,99511.75
2022-07-26T14:32:21.414Z,99507.90
2022-07-26T14:33:19.782Z,99506.37
2022-07-26T14:34:22.217Z,99508.75
2022-07-26T14:35:26.321Z,99507.85
2022-07-26T14:36:30.266Z,99503.50
2022-07-26T14:37:42.289Z,99502.14
2022-07-26T14:38:35.151Z,99504.06
2022-07-26T14:39:37.611Z,99501.70
2022-07-26T14:40:40.122Z,99505.91
2022-07-26T14:41:42.645Z,99503.08
2022-07-26T14:42:45.086Z,99504.38
2022-07-26T14:43:51.103Z,99500.61
2022-07-26T14:44:50.162Z,99498.78
2022-07-26T14:45:54.399Z,99501.33
2022-07-26T14:46:58.395Z,99498.48
2022-07-26T14:48:00.771Z,99503.25
2022-07-26T14:49:03.365Z,99499.00
2022-07-26T14:50:07.080Z,99493.20
2022-07-26T14:51:09.714Z,99495.19
2022-07-26T14:52:12.354Z,99490.80
2022-07-26T14:53:16.307Z,99499.54
2022-07-26T14:54:18.722Z,99492.77
2022-07-26T14:55:25.163Z,99495.59
2022-07-26T14:56:23.737Z,99500.84
2022-07-26T14:57:26.229Z,99503.39
2022-07-26T14:58:28.686Z,99503.03
2022-07-26T14:59:31.162Z,99498.91
2022-07-26T15:00:35.262Z,99495.48
2022-07-26T15:01:37.702Z,99488.44
2022-07-26T15:02:41.867Z,99507.04
2022-07-26T15:03:45.628Z,99495.94
2022-07-26T15:04:47.947Z,99495.16
2022-07-26T15:05:50.467Z,99495.93
2022-07-26T15:06:52.926Z,99500.99
2022-07-26T15:07:56.987Z,99485.58
2022-07-26T15:08:59.326Z,99498.89
2022-07-26T15:10:03.415Z,99499.45
2022-07-26T15:11:05.750Z,99499.28
2022-07-26T15:12:08.222Z,99499.80
2022-07-26T15:13:12.357Z,99498.98
2022-07-26T15:14:14.863Z,99499.82
2022-07-26T15:15:18.836Z,99495.97
2022-07-26T15:16:21.466Z,99492.03
2022-07-26T15:17:23.868Z,99496.38
2022-07-26T15:18:27.939Z,99492.73
2022-07-26T15:19:30.403Z,99491.13
2022-07-26T15:20:33.911Z,99487.67
2022-07-26T15:21:36.396Z,99488.16
2022-07-26T15:22:40.539Z,99485.57
2022-07-26T15:23:44.625Z,99490.17
2022-07-26T15:24:46.994Z,99488.63
2022-07-26T15:25:49.494Z,99486.10
2022-07-26T15:26:51.982Z,99489.63
2022-07-26T15:27:56.053Z,99486.97
2022-07-26T15:29:00.060Z,99490.05
2022-07-26T15:30:06.845Z,99482.46
2022-07-26T15:31:07.956Z,99486.30
2022-07-26T15:32:10.375Z,99488.15
2022-07-26T15:33:12.821Z,99495.00
2022-07-26T15:34:16.900Z,99487.13
2022-07-26T15:35:20.887Z,99481.31
2022-07-26T15:36:23.271Z,99488.35
2022-07-26T15:37:27.423Z,99488.20
2022-07-26T15:38:29.697Z,99488.59
2022-07-26T15:39:33.728Z,99486.70
2022-07-26T15:40:36.074Z,99489.96
2022-07-26T15:41:38.576Z,99491.44
2022-07-26T15:42:42.659Z,99485.95
2022-07-26T15:43:48.608Z,99490.73
2022-07-26T15:44:49.090Z,99488.24
2022-07-26T15:45:51.543Z,99489.75
2022-07-26T15:46:53.913Z,99491.44
2022-07-26T15:48:04.558Z,99492.86
2022-07-26T15:48:58.957Z,99490.34
2022-07-26T15:50:01.355Z,99484.63
2022-07-26T15:51:03.866Z,99487.72
2022-07-26T15:52:07.368Z,99485.53
2022-07-26T15:53:11.406Z,99485.95
2022-07-26T15:54:14.306Z,99484.69
2022-07-26T15:55:17.822Z,99480.27
2022-07-26T15:56:21.829Z,99485.58
2022-07-26T15:57:24.256Z,99479.41
2022-07-26T15:58:26.746Z,99476.41
2022-07-26T15:59:29.311Z,99485.67
2022-07-26T16:00:31.832Z,99483.09
2022-07-26T16:01:34.557Z,99482.85
2022-07-26T16:02:37.103Z,99481.55
2022-07-26T16:03:39.483Z,99485.36
2022-07-26T16:04:43.581Z,99484.53
2022-07-26T16:05:46.925Z,99482.31
2022-07-26T16:06:49.241Z,99488.53
2022-07-26T16:07:51.730Z,99480.92
2022-07-26T16:09:15.009Z,99478.00
2022-07-26T16:09:58.025Z,99480.41
2022-07-26T16:11:02.092Z,99483.06
2022-07-26T16:12:06.164Z,99480.16
2022-07-26T16:13:08.581Z,99478.61
2022-07-26T16:14:12.474Z,99480.48
2022-07-26T16:15:16.433Z,99480.88
2022-07-26T16:16:18.804Z,99477.80
2022-07-26T16:17:21.305Z,99478.66
2022-07-26T16:18:24.446Z,99478.74
2022-07-26T16:19:26.398Z,99483.04
2022-07-26T16:20:28.946Z,99471.81
2022-07-26T16:21:31.492Z,99481.41
2022-07-26T16:22:34.088Z,99484.58
2022-07-26T16:23:36.656Z,99476.76
2022-07-26T16:24:40.824Z,99478.39
2022-07-26T16:25:45.024Z,99479.00
2022-07-26T16:26:47.626Z,99479.63
2022-07-26T16:27:51.436Z,99483.59
2022-07-26T16:28:53.834Z,99477.66
2022-07-26T16:29:56.291Z,99477.22
2022-07-26T16:31:00.515Z,99472.27
2022-07-26T16:32:04.580Z,99477.67
2022-07-26T16:33:06.816Z,99476.98
2022-07-26T16:34:10.941Z,99476.84
2022-07-26T16:35:13.256Z,99475.77
2022-07-26T16:36:15.717Z,99476.23
2022-07-26T16:37:18.169Z,99472.07
2022-07-26T16:38:20.686Z,99479.09
2022-07-26T16:39:23.117Z,99476.71
2022-07-26T16:40:27.189Z,99468.48
2022-07-26T16:41:29.636Z,99472.21
2022-07-26T16:42:33.750Z,99473.13
2022-07-26T16:43:36.085Z,99473.02
2022-07-26T16:44:38.600Z,99469.91
2022-07-26T16:45:41.034Z,99457.76
2022-07-26T16:46:44.212Z,99474.12
2022-07-26T16:47:47.661Z,99472.23
2022-07-26T16:48:50.087Z,99476.45
2022-07-26T16:49:52.545Z,99473.74
2022-07-26T16:50:56.601Z,99472.48
2022-07-26T16:52:00.569Z,99488.02
2022-07-26T16:53:02.912Z,99483.06
2022-07-26T16:54:05.351Z,99485.99
2022-07-26T16:55:09.431Z,99482.90
2022-07-26T16:56:11.770Z,99480.86
2022-07-26T16:57:14.267Z,99481.78
2022-07-26T16:58:16.773Z,99477.17
2022-07-26T16:59:19.255Z,99481.16
2022-07-26T17:00:21.755Z,99484.52
2022-07-26T17:01:24.370Z,99478.33
2022-07-26T17:02:26.890Z,99482.50
2022-07-26T17:03:30.882Z,99480.39
2022-07-26T17:04:33.181Z,99484.02
2022-07-26T17:05:36.678Z,99475.10
2022-07-26T17:06:39.059Z,99479.23
2022-07-26T17:07:41.550Z,99484.44
2022-07-26T17:08:45.659Z,99481.29
2022-07-26T17:09:48.092Z,99484.88
2022-07-26T17:10:52.142Z,99483.58
2022-07-26T17:11:54.501Z,99484.64
2022-07-26T17:12:56.959Z,99488.61
2022-07-26T17:13:59.396Z,99490.11
2022-07-26T17:15:02.930Z,99479.81
2022-07-26T17:16:05.417Z,99476.33
2022-07-26T17:17:07.800Z,99482.53
2022-07-26T17:18:11.929Z,99480.08
2022-07-26T17:19:14.495Z,99482.66
2022-07-26T17:20:16.783Z,99491.44
2022-07-26T17:21:20.880Z,99480.70
2022-07-26T17:22:23.243Z,99483.22
2022-07-26T17:23:25.693Z,99480.63
2022-07-26T17:24:29.767Z,99480.23
2022-07-26T17:25:32.076Z,99478.31
2022-07-26T17:26:36.423Z,99478.94
2022-07-26T17:27:37.068Z,99478.97
2022-07-26T17:28:39.536Z,99477.97
2022-07-26T17:29:42.087Z,99475.02
2022-07-26T17:30:46.146Z,99478.02
2022-07-26T17:31:50.137Z,99478.56
2022-07-26T17:32:52.503Z,99477.15
2022-07-26T17:33:54.961Z,99480.10
2022-07-26T17:34:59.030Z,99495.05
2022-07-26T17:36:06.938Z,99486.19
2022-07-26T17:37:08.315Z,99481.82
2022-07-26T17:38:09.375Z,99478.66
2022-07-26T17:39:12.604Z,99487.28
2022-07-26T17:40:14.300Z,99487.91
2022-07-26T17:41:18.277Z,99489.52
2022-07-26T17:42:20.993Z,99485.32
2022-07-26T17:43:23.307Z,99486.35
2022-07-26T17:44:25.748Z,99491.36
2022-07-26T17:45:28.179Z,99485.30
2022-07-26T17:46:32.467Z,99486.58
2022-07-26T17:47:36.305Z,99490.89
2022-07-26T17:48:38.656Z,99489.95
2022-07-26T17:49:41.204Z,99486.10
2022-07-26T17:50:45.221Z,99489.03
2022-07-26T17:51:47.586Z,99488.83
2022-07-26T17:52:51.653Z,99487.30
2022-07-26T17:53:55.584Z,99490.38
2022-07-26T17:54:59.543Z,99486.31
2022-07-26T17:56:01.940Z,99491.59
2022-07-26T17:57:06.229Z,99494.15
2022-07-26T17:58:09.956Z,99495.56
2022-07-26T17:59:12.758Z,99491.85
2022-07-26T18:00:14.756Z,99493.19
2022-07-26T18:01:17.289Z,99505.21
2022-07-26T18:02:19.817Z,99500.31
2022-07-26T18:03:22.295Z,99503.49
2022-07-26T18:04:24.777Z,99504.52
2022-07-26T18:05:34.107Z,99508.61
2022-07-26T18:06:31.291Z,99507.42
2022-07-26T18:07:33.783Z,99512.54
2022-07-26T18:08:36.457Z,99503.64
2022-07-26T18:09:40.050Z,99505.89
2022-07-26T18:10:44.428Z,99505.06
2022-07-26T18:11:45.231Z,99509.82
2022-07-26T18:12:47.910Z,99506.45
2022-07-26T18:13:52.168Z,99510.67
2022-07-26T18:14:54.658Z,99508.55
2022-07-26T18:15:57.284Z,99508.91
2022-07-26T18:16:59.904Z,99508.89
2022-07-26T18:18:02.468Z,99507.12
2022-07-26T18:19:05.034Z,99506.72
2022-07-26T18:20:09.168Z,99505.45
2022-07-26T18:21:11.685Z,99512.50
2022-07-26T18:22:14.231Z,99506.52
2022-07-26T18:23:16.852Z,99514.14
2022-07-26T18:24:19.443Z,99508.81
2022-07-26T18:25:21.908Z,99511.11
2022-07-26T18:26:26.085Z,99512.33
2022-07-26T18:27:28.526Z,99511.45
2022-07-26T18:28:31.035Z,99511.98
2022-07-26T18:29:33.628Z,99509.50
2022-07-26T18:30:37.749Z,99510.78
2022-07-26T18:31:41.921Z,99513.53
2022-07-26T18:41:12.461Z,99516.53
2022-07-26T18:42:15.021Z,99516.01
2022-07-26T18:43:19.150Z,99518.92
2022-07-26T18:44:21.529Z,99518.56
2022-07-26T18:53:54.321Z,99521.30
2022-07-26T18:54:56.834Z,99517.45
2022-07-26T18:55:59.401Z,99520.95
2022-07-26T18:57:03.468Z,99516.07
2022-07-26T18:58:07.031Z,99512.64
2022-07-26T18:59:10.220Z,99518.47
2022-07-26T19:00:13.840Z,99520.97
2022-07-26T19:01:16.267Z,99518.83
2022-07-26T19:02:18.625Z,99519.92
2022-07-26T19:03:21.107Z,99519.42
2022-07-26T19:04:23.636Z,99523.27